createdAt,value
2023-02-18T00:01:00.254Z,101971.34
2023-02-18T00:03:28.069Z,101965.97
2023-02-18T00:05:54.949Z,101959.78
2023-02-18T00:08:21.971Z,101961.53
2023-02-18T00:10:50.695Z,101954.41
2023-02-18T00:13:17.522Z,101947.31
2023-02-18T00:15:44.083Z,101947.25
2023-02-18T00:18:11.744Z,101937.50
2023-02-18T00:20:39.670Z,101937.47
2023-02-18T00:23:06.483Z,101920.56
2023-02-18T00:25:33.101Z,101919.69
2023-02-18T00:27:59.691Z,101925.03
2023-02-18T00:30:26.350Z,101913.53
2023-02-18T00:32:52.954Z,101905.44
2023-02-18T00:35:19.561Z,101907.22
2023-02-18T00:37:46.147Z,101908.16
2023-02-18T00:40:13.000Z,101901.84
2023-02-18T00:42:39.569Z,101908.09
2023-02-18T00:45:06.468Z,101899.22
2023-02-18T00:47:33.033Z,101897.47
2023-02-18T00:49:59.603Z,101892.09
2023-02-18T00:52:26.159Z,101888.44
2023-02-18T00:54:52.713Z,101879.47
2023-02-18T00:57:19.294Z,101889.38
2023-02-18T00:59:45.970Z,101888.50
2023-02-18T01:02:12.514Z,101887.56
2023-02-18T01:04:39.105Z,101884.94
2023-02-18T01:07:05.684Z,101884.88
2023-02-18T01:09:32.271Z,101885.78
2023-02-18T01:11:58.828Z,101897.41
2023-02-18T01:14:25.417Z,101899.13
2023-02-18T01:16:51.977Z,101878.66
2023-02-18T01:19:18.520Z,101892.00
2023-02-18T01:21:45.133Z,101883.03
2023-02-18T01:24:11.709Z,101879.50
2023-02-18T01:26:38.455Z,101874.19
2023-02-18T01:29:05.054Z,101872.38
2023-02-18T01:31:31.831Z,101865.25
2023-02-18T01:33:58.472Z,101867.13
2023-02-18T01:36:25.045Z,101867.97
2023-02-18T01:38:51.664Z,101861.69
2023-02-18T01:41:18.221Z,101867.97
2023-02-18T01:43:44.814Z,101876.00
2023-02-18T01:46:19.950Z,101863.50
2023-02-18T01:48:48.220Z,101870.56
2023-02-18T01:51:21.740Z,101857.25
2023-02-18T01:53:51.171Z,101847.59
2023-02-18T01:56:29.030Z,101826.09
2023-02-18T01:58:57.623Z,101818.09
2023-02-18T02:01:25.018Z,101814.56
2023-02-18T02:03:51.590Z,101805.69
2023-02-18T02:06:20.282Z,101801.16
2023-02-18T02:08:48.104Z,101795.06
2023-02-18T02:11:52.570Z,101806.50
2023-02-18T02:14:41.561Z,101782.56
2023-02-18T02:17:15.748Z,101779.88
2023-02-18T02:19:48.192Z,101781.63
2023-02-18T02:22:36.212Z,101779.00
2023-02-18T02:25:24.452Z,101789.66
2023-02-18T02:27:59.562Z,101795.81
2023-02-18T02:30:47.641Z,101788.75
2023-02-18T02:33:37.496Z,101775.34
2023-02-18T02:36:27.270Z,101764.69
2023-02-18T02:39:08.462Z,101759.41
2023-02-18T02:42:03.121Z,101751.41
2023-02-18T02:44:32.382Z,101731.81
2023-02-18T02:47:04.259Z,101726.47
2023-02-18T02:50:07.513Z,101722.06
2023-02-18T02:52:38.949Z,101706.06
2023-02-18T02:55:09.629Z,101695.41
2023-02-18T02:57:51.562Z,101690.94
2023-02-18T03:00:41.121Z,101698.00
2023-02-18T03:03:10.649Z,101693.66
2023-02-18T03:05:45.865Z,101702.53
2023-02-18T03:08:39.061Z,101698.19
2023-02-18T03:11:12.490Z,101696.34
2023-02-18T03:13:54.163Z,101683.78
2023-02-18T03:16:50.133Z,101680.25
2023-02-18T03:19:44.795Z,101668.72
2023-02-18T03:22:25.279Z,101666.91
2023-02-18T03:24:53.601Z,101670.50
2023-02-18T03:27:22.027Z,101669.59
2023-02-18T03:29:52.884Z,101686.47
2023-02-18T03:32:21.568Z,101682.97
2023-02-18T03:34:51.799Z,101674.88
2023-02-18T03:37:18.431Z,101662.47
2023-02-18T03:39:47.429Z,101658.97
2023-02-18T03:42:13.977Z,101647.38
2023-02-18T03:44:40.528Z,101646.44
2023-02-18T03:47:07.119Z,101623.31
2023-02-18T03:49:33.705Z,101624.19
2023-02-18T03:52:00.263Z,101625.19
2023-02-18T03:54:26.820Z,101623.31
2023-02-18T03:56:53.396Z,101626.94
2023-02-18T03:59:19.979Z,101641.13
2023-02-18T04:01:46.562Z,101632.25
2023-02-18T04:04:13.173Z,101627.78
2023-02-18T04:06:39.750Z,101623.28
2023-02-18T04:09:09.051Z,101625.13
2023-02-18T04:11:38.163Z,101625.13
2023-02-18T04:14:05.239Z,101623.31
2023-02-18T04:16:32.103Z,101608.22
2023-02-18T04:18:58.732Z,101618.00
2023-02-18T04:21:25.588Z,101606.44
2023-02-18T04:23:52.160Z,101611.72
2023-02-18T04:26:18.727Z,101599.28
2023-02-18T04:28:45.321Z,101600.22
2023-02-18T04:31:12.047Z,101585.97
2023-02-18T04:33:38.662Z,101581.56
2023-02-18T04:36:06.058Z,101562.88
2023-02-18T04:38:32.726Z,101559.34
2023-02-18T04:40:59.329Z,101552.25
2023-02-18T04:43:25.876Z,101541.56
2023-02-18T04:45:52.476Z,101543.31
2023-02-18T04:48:19.254Z,101525.50
2023-02-18T04:50:45.851Z,101517.50
2023-02-18T04:53:12.427Z,101513.13
2023-02-18T04:55:39.000Z,101505.13
2023-02-18T04:58:05.560Z,101485.50
2023-02-18T05:00:32.131Z,101488.25
2023-02-18T05:02:58.688Z,101480.22
2023-02-18T05:05:25.257Z,101461.53
2023-02-18T05:07:51.854Z,101448.19
2023-02-18T05:10:19.000Z,101447.28
2023-02-18T05:12:45.576Z,101437.47
2023-02-18T05:15:12.314Z,101431.28
2023-02-18T05:17:38.963Z,101425.97
2023-02-18T05:20:08.924Z,101428.63
2023-02-18T05:22:36.587Z,101413.53
2023-02-18T05:25:03.220Z,101425.06
2023-02-18T05:27:29.816Z,101424.16
2023-02-18T05:29:56.511Z,101411.75
2023-02-18T05:32:23.416Z,101415.28
2023-02-18T05:34:49.965Z,101412.63
2023-02-18T05:37:18.600Z,101393.06
2023-02-18T05:39:45.690Z,101386.81
2023-02-18T05:42:12.393Z,101377.94
2023-02-18T05:44:38.954Z,101374.41
2023-02-18T05:47:11.618Z,101383.25
2023-02-18T05:49:39.396Z,101372.59
2023-02-18T05:52:06.692Z,101367.28
2023-02-18T05:54:33.583Z,101351.31
2023-02-18T05:57:00.198Z,101354.81
2023-02-18T05:59:26.827Z,101348.59
2023-02-18T06:01:53.766Z,101350.41
2023-02-18T06:04:20.410Z,101346.81
2023-02-18T06:06:47.352Z,101345.94
2023-02-18T06:09:14.061Z,101337.06
2023-02-18T06:11:40.661Z,101324.59
2023-02-18T06:14:07.287Z,101318.41
2023-02-18T06:16:34.036Z,101307.72
2023-02-18T06:19:00.597Z,101309.47
2023-02-18T06:21:27.234Z,101311.25
2023-02-18T06:23:53.906Z,101308.63
2023-02-18T06:26:20.519Z,101301.47
2023-02-18T06:28:47.131Z,101298.81
2023-02-18T06:31:13.852Z,101310.38
2023-02-18T06:33:40.496Z,101305.03
2023-02-18T06:36:09.426Z,101285.50
2023-02-18T06:38:36.337Z,101289.91
2023-02-18T06:41:03.372Z,101285.50
2023-02-18T06:43:30.319Z,101283.69
2023-02-18T06:45:56.963Z,101276.59
2023-02-18T06:48:23.995Z,101269.47
2023-02-18T06:50:50.701Z,101269.47
2023-02-18T06:53:17.770Z,101258.81
2023-02-18T06:55:44.991Z,101265.91
2023-02-18T06:58:12.329Z,101260.56
2023-02-18T07:00:39.031Z,101256.13
2023-02-18T07:03:06.372Z,101245.47
2023-02-18T07:05:32.957Z,101237.47
2023-02-18T07:07:59.537Z,101233.91
2023-02-18T07:10:26.122Z,101231.25
2023-02-18T07:12:52.696Z,101240.16
2023-02-18T07:15:24.189Z,101234.81
2023-02-18T07:17:51.712Z,101221.56
2023-02-18T07:20:18.996Z,101226.00
2023-02-18T07:22:45.602Z,101212.63
2023-02-18T07:25:12.307Z,101224.19
2023-02-18T07:27:38.857Z,101202.81
2023-02-18T07:30:06.074Z,101205.38
2023-02-18T07:32:32.624Z,101211.59
2023-02-18T07:34:59.197Z,101211.47
2023-02-18T07:37:25.823Z,101217.59
2023-02-18T07:39:52.442Z,101217.50
2023-02-18T07:42:19.078Z,101219.16
2023-02-18T07:44:45.809Z,101213.81
2023-02-18T07:47:17.265Z,101213.81
2023-02-18T07:49:45.716Z,101196.00
2023-02-18T07:52:13.399Z,101207.56
2023-02-18T07:54:39.973Z,101196.88
2023-02-18T07:57:06.599Z,101207.59
2023-02-18T07:59:33.210Z,101205.88
2023-02-18T08:01:59.965Z,101201.44
2023-02-18T08:04:26.577Z,101213.97
2023-02-18T08:06:53.166Z,101206.84
2023-02-18T08:09:19.725Z,101207.78
2023-02-18T08:11:46.319Z,101210.47
2023-02-18T08:14:13.234Z,101208.69
2023-02-18T08:16:41.167Z,101196.19
2023-02-18T08:19:08.600Z,101198.03
2023-02-18T08:21:35.208Z,101196.25
2023-02-18T08:24:01.862Z,101196.28
2023-02-18T08:26:28.824Z,101192.75
2023-02-18T08:28:55.640Z,101195.44
2023-02-18T08:31:25.354Z,101207.03
2023-02-18T08:33:53.919Z,101203.41
2023-02-18T08:36:21.097Z,101201.63
2023-02-18T08:38:47.882Z,101199.88
2023-02-18T08:41:14.696Z,101200.78
2023-02-18T08:43:41.882Z,101198.13
2023-02-18T08:46:08.476Z,101198.97
2023-02-18T08:48:43.075Z,101203.38
2023-02-18T08:51:18.795Z,101206.09
2023-02-18T08:53:47.223Z,101202.50
2023-02-18T08:56:14.760Z,101199.88
2023-02-18T08:58:42.070Z,101187.41
2023-02-18T09:01:11.445Z,101192.78
2023-02-18T09:03:38.684Z,101196.31
2023-02-18T09:06:05.578Z,101187.47
2023-02-18T09:08:32.513Z,101201.69
2023-02-18T09:11:01.407Z,101193.69
2023-02-18T09:13:28.351Z,101191.00
2023-02-18T09:16:06.754Z,101196.41
2023-02-18T09:18:35.955Z,101207.13
2023-02-18T09:21:03.085Z,101196.38
2023-02-18T09:23:31.556Z,101207.03
2023-02-18T09:25:58.575Z,101215.06
2023-02-18T09:28:25.757Z,101199.00
2023-02-18T09:30:52.903Z,101204.34
2023-02-18T09:33:19.565Z,101197.25
2023-02-18T09:35:46.748Z,101210.63
2023-02-18T09:38:16.154Z,101210.66
2023-02-18T09:40:46.227Z,101205.22
2023-02-18T09:43:32.732Z,101215.00
2023-02-18T09:46:00.522Z,101212.31
2023-02-18T09:48:29.404Z,101216.81
2023-02-18T09:50:56.028Z,101219.47
2023-02-18T09:53:23.728Z,101205.22
2023-02-18T09:55:53.841Z,101210.56
2023-02-18T09:58:29.102Z,101218.53
2023-02-18T10:01:07.676Z,101212.38
2023-02-18T10:03:34.438Z,101210.56
2023-02-18T10:06:06.253Z,101208.78
2023-02-18T10:08:38.552Z,101215.03
2023-02-18T10:11:13.628Z,101210.63
2023-02-18T10:13:41.203Z,101214.16
2023-02-18T10:16:08.786Z,101221.28
2023-02-18T10:18:42.375Z,101217.69
2023-02-18T10:21:18.400Z,101219.53
2023-02-18T10:23:58.037Z,101228.38
2023-02-18T10:26:24.756Z,101223.06
2023-02-18T10:28:52.542Z,101222.16
2023-02-18T10:31:31.185Z,101209.72
2023-02-18T10:34:24.994Z,101224.88
2023-02-18T10:36:56.608Z,101218.59
2023-02-18T10:39:40.261Z,101219.50
2023-02-18T10:42:09.389Z,101223.03
2023-02-18T10:45:07.141Z,101231.00
2023-02-18T10:48:14.715Z,101240.91
2023-02-18T10:50:43.218Z,101242.66
2023-02-18T10:53:31.571Z,101247.97
2023-02-18T10:55:58.945Z,101248.81
2023-02-18T10:58:36.030Z,101257.63
2023-02-18T11:01:08.879Z,101263.84
2023-02-18T11:03:43.539Z,101255.91
2023-02-18T11:06:34.139Z,101273.00
2023-02-18T11:09:01.011Z,101260.56
2023-02-18T11:11:37.766Z,101255.25
2023-02-18T11:14:07.313Z,101262.38
2023-02-18T11:16:45.801Z,101269.53
2023-02-18T11:19:35.445Z,101273.06
2023-02-18T11:22:11.245Z,101273.09
2023-02-18T11:24:39.384Z,101272.22
2023-02-18T11:27:33.646Z,101280.22
2023-02-18T11:30:17.811Z,101271.34
2023-02-18T11:32:44.566Z,101280.22
2023-02-18T11:35:19.261Z,101287.38
2023-02-18T11:37:45.977Z,101282.00
2023-02-18T11:40:28.087Z,101284.69
2023-02-18T11:43:04.354Z,101300.69
2023-02-18T11:45:34.103Z,101298.03
2023-02-18T11:48:07.879Z,101294.44
2023-02-18T11:50:35.293Z,101295.34
2023-02-18T11:53:25.335Z,101306.94
2023-02-18T11:55:58.082Z,101300.63
2023-02-18T11:58:25.202Z,101302.34
2023-02-18T12:00:55.651Z,101303.19
2023-02-18T12:03:39.300Z,101305.78
2023-02-18T12:06:16.115Z,101312.03
2023-02-18T12:08:56.077Z,101308.38
2023-02-18T12:11:29.400Z,101308.34
2023-02-18T12:13:57.530Z,101310.03
2023-02-18T12:16:30.760Z,101320.69
2023-02-18T12:19:13.968Z,101315.41
2023-02-18T12:22:01.655Z,101304.72
2023-02-18T12:24:37.331Z,101327.13
2023-02-18T12:27:09.978Z,101324.44
2023-02-18T12:30:14.933Z,101329.78
2023-02-18T12:32:57.419Z,101336.88
2023-02-18T12:35:38.076Z,101327.88
2023-02-18T12:38:28.770Z,101340.38
2023-02-18T12:41:04.961Z,101326.06
2023-02-18T12:43:31.495Z,101340.25
2023-02-18T12:46:02.493Z,101354.47
2023-02-18T12:48:57.019Z,101346.47
2023-02-18T12:51:29.382Z,101357.28
2023-02-18T12:54:06.896Z,101358.22
2023-02-18T12:57:01.104Z,101359.09
2023-02-18T12:59:36.588Z,101359.97
2023-02-18T13:02:40.175Z,101359.09
2023-02-18T13:05:28.052Z,101367.09
2023-02-18T13:08:15.610Z,101361.75
2023-02-18T13:11:00.449Z,101372.44
2023-02-18T13:13:35.125Z,101370.66
2023-02-18T13:16:02.618Z,101359.81
2023-02-18T13:18:35.559Z,101379.41
2023-02-18T13:21:06.184Z,101377.66
2023-02-18T13:23:36.474Z,101371.44
2023-02-18T13:26:05.539Z,101382.13
2023-02-18T13:28:58.981Z,101371.47
2023-02-18T13:31:52.830Z,101380.41
2023-02-18T13:34:39.629Z,101398.25
2023-02-18T13:37:08.233Z,101397.34
2023-02-18T13:39:35.406Z,101386.66
2023-02-18T13:42:17.146Z,101389.28
2023-02-18T13:44:56.352Z,101386.59
2023-02-18T13:47:36.612Z,101400.88
2023-02-18T13:50:21.845Z,101393.78
2023-02-18T13:53:00.870Z,101393.78
2023-02-18T13:55:49.251Z,101399.13
2023-02-18T13:58:51.999Z,101389.34
2023-02-18T14:01:48.757Z,101401.81
2023-02-18T14:04:33.961Z,101395.63
2023-02-18T14:07:18.819Z,101400.97
2023-02-18T14:09:46.277Z,101400.97
2023-02-18T14:12:34.598Z,101404.59
2023-02-18T14:15:01.316Z,101404.56
2023-02-18T14:17:34.453Z,101407.22
2023-02-18T14:20:01.023Z,101408.13
2023-02-18T14:22:28.480Z,101423.31
2023-02-18T14:25:09.594Z,101423.31
2023-02-18T14:27:37.831Z,101426.00
2023-02-18T14:30:08.610Z,101418.00
2023-02-18T14:32:35.291Z,101425.91
2023-02-18T14:35:12.146Z,101424.25
2023-02-18T14:37:53.716Z,101428.69
2023-02-18T14:40:41.744Z,101438.50
2023-02-18T14:43:45.448Z,101437.63
2023-02-18T14:46:39.651Z,101443.88
2023-02-18T14:49:33.886Z,101447.44
2023-02-18T14:52:00.994Z,101444.78
2023-02-18T14:54:29.295Z,101456.31
2023-02-18T14:56:59.147Z,101460.84
2023-02-18T14:59:29.355Z,101465.28
2023-02-18T15:01:56.723Z,101468.91
2023-02-18T15:04:25.345Z,101465.28
2023-02-18T15:07:00.274Z,101477.81
2023-02-18T15:09:27.104Z,101471.56
2023-02-18T15:12:02.360Z,101470.69
2023-02-18T15:14:40.581Z,101469.78
2023-02-18T15:17:12.625Z,101469.78
2023-02-18T15:19:51.379Z,101488.53
2023-02-18T15:22:23.344Z,101476.91
2023-02-18T15:24:51.337Z,101492.09
2023-02-18T15:27:22.755Z,101480.50
2023-02-18T15:29:51.622Z,101491.19
2023-02-18T15:32:25.196Z,101483.16
2023-02-18T15:34:56.961Z,101495.66
2023-02-18T15:37:23.552Z,101490.31
2023-02-18T15:39:50.786Z,101494.75
2023-02-18T15:42:25.366Z,101490.31
2023-02-18T15:44:58.330Z,101518.84
2023-02-18T15:47:25.686Z,101508.16
2023-02-18T15:49:54.728Z,101512.63
2023-02-18T15:52:27.355Z,101512.59
2023-02-18T15:54:54.562Z,101517.06
2023-02-18T15:57:26.158Z,101524.22
2023-02-18T15:59:55.638Z,101527.75
2023-02-18T16:02:27.182Z,101531.34
2023-02-18T16:05:02.784Z,101527.75
2023-02-18T16:07:37.346Z,101526.91
2023-02-18T16:10:23.882Z,101523.28
2023-02-18T16:12:54.264Z,101520.66
2023-02-18T16:15:27.961Z,101526.00
2023-02-18T16:17:54.762Z,101530.47
2023-02-18T16:20:37.795Z,101540.28
2023-02-18T16:23:14.867Z,101525.09
2023-02-18T16:25:45.388Z,101526.00
2023-02-18T16:28:28.000Z,101530.47
2023-02-18T16:30:57.643Z,101531.38
2023-02-18T16:33:24.203Z,101534.03
2023-02-18T16:35:51.222Z,101552.78
2023-02-18T16:38:20.534Z,101544.78
2023-02-18T16:40:47.712Z,101531.38
2023-02-18T16:43:26.901Z,101543.88
2023-02-18T16:45:57.202Z,101542.06
2023-02-18T16:48:40.569Z,101539.41
2023-02-18T16:51:14.670Z,101543.88
2023-02-18T16:53:41.309Z,101553.69
2023-02-18T16:56:16.149Z,101554.56
2023-02-18T16:58:42.772Z,101556.34
2023-02-18T17:01:22.053Z,101565.25
2023-02-18T17:03:49.617Z,101563.50
2023-02-18T17:06:16.610Z,101568.81
2023-02-18T17:08:43.203Z,101567.03
2023-02-18T17:11:16.686Z,101572.41
2023-02-18T17:13:43.230Z,101567.06
2023-02-18T17:16:10.624Z,101574.16
2023-02-18T17:18:37.395Z,101573.28
2023-02-18T17:21:04.273Z,101567.94
2023-02-18T17:23:30.871Z,101570.59
2023-02-18T17:25:57.483Z,101578.63
2023-02-18T17:28:24.090Z,101576.84
2023-02-18T17:30:56.621Z,101575.94
2023-02-18T17:33:25.068Z,101584.88
2023-02-18T17:35:51.696Z,101591.16
2023-02-18T17:38:19.012Z,101594.69
2023-02-18T17:40:45.903Z,101595.59
2023-02-18T17:43:13.720Z,101603.63
2023-02-18T17:45:46.581Z,101604.53
2023-02-18T17:48:13.149Z,101598.28
2023-02-18T17:50:39.802Z,101599.16
2023-02-18T17:53:06.638Z,101610.75
2023-02-18T17:55:35.745Z,101608.06
2023-02-18T17:58:02.287Z,101602.75
2023-02-18T18:00:32.159Z,101601.84
2023-02-18T18:02:59.128Z,101597.34
2023-02-18T18:05:28.872Z,101602.72
2023-02-18T18:07:55.767Z,101612.53
2023-02-18T18:10:28.558Z,101616.09
2023-02-18T18:12:55.176Z,101617.00
2023-02-18T18:15:34.813Z,101617.03
2023-02-18T18:18:01.477Z,101611.66
2023-02-18T18:20:29.701Z,101614.31
2023-02-18T18:22:57.591Z,101610.78
2023-02-18T18:25:28.549Z,101609.88
2023-02-18T18:27:55.371Z,101612.56
2023-02-18T18:30:24.578Z,101620.56
2023-02-18T18:32:51.410Z,101634.84
2023-02-18T18:35:29.898Z,101631.25
2023-02-18T18:37:56.729Z,101628.56
2023-02-18T18:40:26.601Z,101620.59
2023-02-18T18:42:54.302Z,101629.50
2023-02-18T18:45:24.765Z,101625.91
2023-02-18T18:47:52.123Z,101631.25
2023-02-18T18:50:19.778Z,101631.28
2023-02-18T18:52:47.630Z,101628.56
2023-02-18T18:55:30.598Z,101633.06
2023-02-18T18:57:57.702Z,101620.56
2023-02-18T19:00:30.893Z,101621.44
2023-02-18T19:02:57.758Z,101612.56
2023-02-18T19:05:24.261Z,101621.44
2023-02-18T19:07:50.895Z,101618.75
2023-02-18T19:10:17.865Z,101617.88
2023-02-18T19:12:44.759Z,101622.34
2023-02-18T19:15:17.354Z,101617.88
2023-02-18T19:17:50.406Z,101615.19
2023-02-18T19:20:19.380Z,101615.19
2023-02-18T19:22:45.957Z,101606.28
2023-02-18T19:25:12.547Z,101607.16
2023-02-18T19:27:40.960Z,101608.97
2023-02-18T19:30:09.617Z,101611.63
2023-02-18T19:32:36.227Z,101596.47
2023-02-18T19:35:02.861Z,101601.84
2023-02-18T19:37:33.884Z,101599.16
2023-02-18T19:40:00.781Z,101597.38
2023-02-18T19:42:27.752Z,101604.50
2023-02-18T19:44:55.762Z,101599.13
2023-02-18T19:47:24.026Z,101593.81
2023-02-18T19:49:51.725Z,101600.03
2023-02-18T19:52:19.221Z,101594.72
2023-02-18T19:54:46.459Z,101589.34
2023-02-18T19:57:13.628Z,101577.78
2023-02-18T19:59:40.388Z,101579.53
2023-02-18T20:02:07.703Z,101583.09
2023-02-18T20:04:34.701Z,101583.13
2023-02-18T20:07:01.278Z,101588.47
2023-02-18T20:09:27.879Z,101584.91
2023-02-18T20:11:54.475Z,101582.22
2023-02-18T20:14:23.841Z,101584.88
2023-02-18T20:16:50.422Z,101594.69
2023-02-18T20:19:16.969Z,101592.03
2023-02-18T20:21:43.542Z,101591.09
2023-02-18T20:24:11.128Z,101592.00
2023-02-18T20:26:37.959Z,101586.66
2023-02-18T20:29:04.691Z,101580.44
2023-02-18T20:31:31.340Z,101583.09
2023-02-18T20:33:58.564Z,101589.34
2023-02-18T20:36:25.889Z,101584.91
2023-02-18T20:38:52.544Z,101584.88
2023-02-18T20:41:20.815Z,101577.75
2023-02-18T20:43:48.180Z,101573.28
2023-02-18T20:46:18.249Z,101563.47
2023-02-18T20:48:45.589Z,101570.63
2023-02-18T20:51:20.600Z,101568.84
2023-02-18T20:53:48.264Z,101566.16
2023-02-18T20:56:15.297Z,101577.75
2023-02-18T20:58:42.285Z,101574.19
2023-02-18T21:01:11.795Z,101575.06
2023-02-18T21:03:39.622Z,101570.63
2023-02-18T21:06:15.557Z,101566.16
2023-02-18T21:08:43.531Z,101559.94
2023-02-18T21:11:15.328Z,101553.69
2023-02-18T21:13:42.481Z,101552.78
2023-02-18T21:16:09.887Z,101549.22
2023-02-18T21:18:36.703Z,101545.69
2023-02-18T21:21:05.582Z,101534.97
2023-02-18T21:23:32.243Z,101535.00
2023-02-18T21:26:06.698Z,101534.06
2023-02-18T21:28:33.951Z,101527.84
2023-02-18T21:31:00.898Z,101534.94
2023-02-18T21:33:27.703Z,101526.06
2023-02-18T21:35:54.296Z,101527.88
2023-02-18T21:38:21.172Z,101520.72
2023-02-18T21:40:48.237Z,101523.34
2023-02-18T21:43:15.008Z,101510.03
2023-02-18T21:45:41.730Z,101517.13
2023-02-18T21:48:28.262Z,101503.78
2023-02-18T21:50:54.927Z,101500.19
2023-02-18T21:53:21.555Z,101504.69
2023-02-18T21:56:03.036Z,101492.22
2023-02-18T21:58:30.313Z,101490.41
2023-02-18T22:00:58.249Z,101493.97
2023-02-18T22:03:24.937Z,101499.34
2023-02-18T22:05:51.642Z,101499.34
2023-02-18T22:08:18.263Z,101508.25
2023-02-18T22:10:44.826Z,101493.94
2023-02-18T22:13:11.411Z,101496.63
2023-02-18T22:15:39.216Z,101492.16
2023-02-18T22:18:07.638Z,101485.06
2023-02-18T22:20:34.221Z,101479.72
2023-02-18T22:23:00.770Z,101483.25
2023-02-18T22:25:27.359Z,101473.47
2023-02-18T22:27:53.933Z,101481.53
2023-02-18T22:30:20.567Z,101481.47
2023-02-18T22:32:47.176Z,101474.38
2023-02-18T22:35:16.332Z,101477.91
2023-02-18T22:37:43.259Z,101482.38
2023-02-18T22:40:10.202Z,101484.16
2023-02-18T22:42:36.775Z,101478.81
2023-02-18T22:45:03.695Z,101477.94
2023-02-18T22:47:30.265Z,101468.13
2023-02-18T22:49:56.830Z,101467.22
2023-02-18T22:52:23.408Z,101467.22
2023-02-18T22:54:49.969Z,101457.44
2023-02-18T22:57:16.546Z,101454.78
2023-02-18T22:59:43.127Z,101444.06
2023-02-18T23:02:09.713Z,101448.53
2023-02-18T23:04:38.701Z,101444.06
2023-02-18T23:07:05.300Z,101450.31
2023-02-18T23:09:31.884Z,101445.84
2023-02-18T23:11:58.567Z,101449.41
2023-02-18T23:14:28.185Z,101441.41
2023-02-18T23:17:17.687Z,101439.63
2023-02-18T23:19:52.368Z,101445.88
2023-02-18T23:22:32.704Z,101439.63
2023-02-18T23:25:00.560Z,101435.19
2023-02-18T23:27:27.657Z,101440.50
2023-02-18T23:29:55.125Z,101444.09
2023-02-18T23:32:21.803Z,101444.09
2023-02-18T23:34:50.852Z,101445.88
2023-02-18T23:37:17.406Z,101449.41
2023-02-18T23:39:45.332Z,101449.44
2023-02-18T23:42:14.239Z,101443.19
2023-02-18T23:44:40.803Z,101452.09
2023-02-18T23:47:08.472Z,101442.31
2023-02-18T23:49:35.119Z,101442.31
2023-02-18T23:52:01.721Z,101440.50
2023-02-18T23:54:28.312Z,101440.53
2023-02-18T23:56:54.947Z,101440.50
2023-02-18T23:59:21.546Z,101442.28
